createdAt,value
2022-10-03T00:02:21.199Z,2.10
2022-10-03T00:05:11.824Z,2.00
2022-10-03T00:07:54.818Z,2.40
2022-10-03T00:10:31.083Z,2.20
2022-10-03T00:13:09.724Z,2.20
2022-10-03T00:15:47.225Z,2.70
2022-10-03T00:18:27.284Z,2.60
2022-10-03T00:21:09.270Z,2.43
2022-10-03T00:23:46.630Z,2.70
2022-10-03T00:26:30.707Z,2.63
2022-10-03T00:29:20.282Z,2.83
2022-10-03T00:32:01.410Z,2.77
2022-10-03T00:34:40.808Z,2.90
2022-10-03T00:37:25.105Z,3.57
2022-10-03T00:40:09.418Z,3.00
2022-10-03T00:43:20.561Z,3.00
2022-10-03T00:46:36.308Z,3.33
2022-10-03T00:49:28.630Z,3.07
2022-10-03T00:57:15.630Z,4.13
2022-10-03T00:59:56.885Z,3.27
2022-10-03T01:02:43.272Z,3.20
2022-10-03T01:05:20.398Z,3.33
2022-10-03T01:08:03.835Z,3.33
2022-10-03T01:10:39.396Z,3.60
2022-10-03T01:18:31.456Z,3.23
2022-10-03T01:21:07.414Z,3.73
2022-10-03T01:24:04.512Z,4.03
2022-10-03T01:26:49.240Z,3.50
2022-10-03T01:29:42.217Z,3.47
2022-10-03T01:32:15.191Z,3.77
2022-10-03T01:38:45.203Z,4.07
2022-10-03T01:41:22.152Z,3.50
2022-10-03T01:43:54.924Z,3.63
2022-10-03T01:46:22.935Z,4.03
2022-10-03T01:48:58.792Z,3.90
2022-10-03T01:51:29.474Z,4.10
2022-10-03T02:00:56.699Z,4.23
2022-10-03T02:03:27.317Z,4.43
2022-10-03T02:06:01.179Z,4.43
2022-10-03T02:08:43.764Z,4.53
2022-10-03T02:11:12.020Z,4.00
2022-10-03T02:13:47.483Z,4.13
2022-10-03T02:16:30.242Z,3.60
2022-10-03T02:24:24.043Z,4.43
2022-10-03T02:27:20.966Z,4.70
2022-10-03T02:30:02.992Z,4.20
2022-10-03T02:33:04.080Z,4.33
2022-10-03T02:35:55.591Z,4.33
2022-10-03T02:38:42.971Z,4.40
2022-10-03T02:49:27.168Z,5.00
2022-10-03T02:52:26.126Z,4.07
2022-10-03T02:55:23.534Z,5.83
2022-10-03T02:58:15.620Z,4.23
2022-10-03T03:01:06.856Z,4.63
2022-10-03T03:04:05.994Z,4.67
2022-10-03T03:12:12.277Z,4.97
2022-10-03T03:15:07.714Z,4.87
2022-10-03T03:17:42.068Z,4.90
2022-10-03T03:20:25.470Z,4.80
2022-10-03T03:23:10.037Z,4.80
2022-10-03T03:25:51.363Z,4.93
2022-10-03T03:32:19.274Z,4.97
2022-10-03T03:34:54.031Z,5.37
2022-10-03T03:37:29.547Z,5.47
2022-10-03T03:40:08.913Z,5.00
2022-10-03T03:42:56.629Z,5.50
2022-10-03T03:45:41.148Z,5.43
2022-10-03T03:48:24.402Z,4.60
2022-10-03T03:51:12.185Z,4.97
2022-10-03T03:53:59.493Z,5.33
2022-10-03T03:56:56.075Z,4.80
2022-10-03T03:59:40.869Z,5.27
2022-10-03T04:02:22.006Z,6.00
2022-10-03T04:05:07.910Z,5.10
2022-10-03T04:07:50.378Z,5.00
2022-10-03T04:10:29.732Z,5.20
2022-10-03T04:13:18.937Z,5.00
2022-10-03T04:16:08.618Z,5.07
2022-10-03T04:19:00.961Z,5.37
2022-10-03T04:22:01.047Z,4.93
2022-10-03T04:25:00.964Z,5.40
2022-10-03T04:28:00.133Z,5.60
2022-10-03T04:30:38.210Z,5.30
2022-10-03T04:33:27.859Z,5.27
2022-10-03T04:36:39.950Z,5.77
2022-10-03T04:39:17.382Z,5.27
2022-10-03T04:41:53.076Z,5.40
2022-10-03T04:44:34.765Z,4.93
2022-10-03T04:47:10.911Z,5.87
2022-10-03T04:49:44.494Z,5.13
2022-10-03T04:52:20.032Z,4.70
2022-10-03T04:54:58.167Z,4.97
2022-10-03T04:57:36.535Z,5.07
2022-10-03T05:00:15.495Z,5.37
2022-10-03T05:02:50.151Z,5.50
2022-10-03T05:05:42.930Z,4.77
2022-10-03T05:08:22.320Z,4.93
2022-10-03T05:10:58.915Z,4.97
2022-10-03T05:13:42.345Z,5.10
2022-10-03T05:16:21.957Z,5.00
2022-10-03T05:18:56.523Z,4.83
2022-10-03T05:21:35.031Z,4.90
2022-10-03T05:24:15.533Z,6.17
2022-10-03T05:26:50.038Z,5.33
2022-10-03T05:29:28.239Z,5.43
2022-10-03T05:32:11.489Z,6.00
2022-10-03T05:35:04.761Z,5.87
2022-10-03T05:37:50.966Z,5.63
2022-10-03T05:40:24.268Z,5.27
2022-10-03T05:43:05.962Z,5.33
2022-10-03T05:45:49.002Z,5.20
2022-10-03T05:48:32.487Z,5.20
2022-10-03T05:57:39.245Z,5.03
2022-10-03T06:00:15.582Z,5.07
2022-10-03T06:03:18.265Z,5.00
2022-10-03T06:05:58.250Z,4.13
2022-10-03T06:08:52.491Z,4.27
2022-10-03T06:11:48.940Z,4.70
2022-10-03T06:14:34.711Z,4.80
2022-10-03T06:22:47.578Z,4.60
2022-10-03T06:25:52.791Z,4.80
2022-10-03T06:28:56.030Z,4.87
2022-10-03T06:31:57.403Z,4.90
2022-10-03T06:34:44.354Z,4.33
2022-10-03T06:37:41.803Z,4.93
2022-10-03T06:45:56.611Z,4.13
2022-10-03T06:48:58.142Z,4.93
2022-10-03T06:51:52.906Z,4.00
2022-10-03T06:54:54.616Z,4.40
2022-10-03T06:57:39.208Z,4.97
2022-10-03T07:00:14.747Z,4.53
2022-10-03T07:08:22.336Z,4.77
2022-10-03T07:11:15.474Z,5.10
2022-10-03T07:14:00.195Z,5.40
2022-10-03T07:16:53.023Z,4.70
2022-10-03T07:19:38.389Z,5.07
2022-10-03T07:22:41.232Z,4.90
2022-10-03T07:29:13.188Z,4.97
2022-10-03T07:32:00.894Z,4.97
2022-10-03T07:35:02.227Z,4.60
2022-10-03T07:38:04.258Z,5.20
2022-10-03T07:41:04.754Z,4.80
2022-10-03T07:44:06.270Z,5.10
2022-10-03T07:52:13.257Z,5.27
2022-10-03T07:54:59.279Z,4.90
2022-10-03T07:58:03.967Z,6.00
2022-10-03T08:00:46.979Z,5.90
2022-10-03T08:03:56.884Z,17.17
2022-10-03T08:06:35.369Z,7.47
2022-10-03T08:16:01.089Z,6.87
2022-10-03T08:19:01.912Z,6.97
2022-10-03T08:21:38.597Z,6.23
2022-10-03T08:24:36.528Z,6.37
2022-10-03T08:27:34.679Z,6.07
2022-10-03T08:30:31.698Z,6.73
2022-10-03T08:33:42.679Z,6.03
2022-10-03T08:36:42.696Z,6.17
2022-10-03T08:39:37.211Z,6.00
2022-10-03T08:42:33.250Z,7.07
2022-10-03T08:45:26.825Z,5.30
2022-10-03T08:48:38.094Z,6.70
2022-10-03T08:51:38.901Z,5.70
2022-10-03T08:54:25.047Z,5.80
2022-10-03T08:57:24.833Z,5.93
2022-10-03T09:00:07.638Z,6.23
2022-10-03T09:03:39.306Z,5.90
2022-10-03T09:07:18.920Z,7.13
2022-10-03T09:10:14.050Z,5.33
2022-10-03T09:13:19.743Z,6.30
2022-10-03T09:16:18.538Z,6.10
2022-10-03T09:19:04.854Z,6.20
2022-10-03T09:22:04.937Z,6.40
2022-10-03T09:25:06.303Z,6.37
2022-10-03T09:28:02.329Z,5.77
2022-10-03T09:30:48.965Z,6.47
2022-10-03T09:36:24.962Z,5.80
2022-10-03T09:39:17.777Z,5.40
2022-10-03T09:42:25.070Z,5.00
2022-10-03T09:45:23.580Z,5.00
2022-10-03T09:48:28.032Z,5.90
2022-10-03T09:51:26.248Z,6.30
2022-10-03T09:57:08.733Z,5.83
2022-10-03T10:00:02.775Z,5.20
2022-10-03T10:03:19.698Z,5.80
2022-10-03T10:06:15.272Z,5.20
2022-10-03T10:09:27.532Z,4.27
2022-10-03T10:12:18.523Z,5.00
2022-10-03T10:19:05.093Z,4.60
2022-10-03T10:21:59.009Z,4.60
2022-10-03T10:24:58.138Z,4.40
2022-10-03T10:28:02.777Z,4.30
2022-10-03T10:31:04.749Z,4.70
2022-10-03T10:37:18.519Z,3.90
2022-10-03T10:40:12.008Z,3.80
2022-10-03T10:43:20.647Z,4.10
2022-10-03T10:46:16.751Z,4.00
2022-10-03T10:49:35.134Z,4.00
2022-10-03T10:52:46.141Z,4.80
2022-10-03T11:01:01.234Z,3.53
2022-10-03T11:04:19.246Z,2.83
2022-10-03T11:07:19.951Z,4.13
2022-10-03T11:10:31.082Z,2.90
2022-10-03T11:13:36.109Z,3.50
2022-10-03T11:16:42.877Z,3.60
2022-10-03T11:19:35.287Z,3.10
2022-10-03T11:22:38.703Z,2.70
2022-10-03T11:25:40.402Z,3.10
2022-10-03T11:28:59.865Z,3.27
2022-10-03T11:31:50.215Z,2.90
2022-10-03T11:34:57.626Z,3.10
2022-10-03T11:37:37.164Z,3.07
2022-10-03T11:40:23.438Z,3.50
2022-10-03T11:43:02.118Z,2.97
2022-10-03T11:45:33.959Z,3.07
2022-10-03T11:48:21.294Z,2.63
2022-10-03T11:50:54.965Z,3.23
2022-10-03T11:53:32.028Z,2.67
2022-10-03T11:56:19.998Z,2.80
2022-10-03T11:59:01.886Z,3.10
2022-10-03T12:01:40.641Z,2.97
2022-10-03T12:04:18.147Z,3.13
2022-10-03T12:07:17.763Z,3.30
2022-10-03T12:10:01.341Z,3.10
2022-10-03T12:12:43.767Z,2.77
2022-10-03T12:15:31.205Z,3.10
2022-10-03T12:18:08.175Z,2.63
2022-10-03T12:23:25.081Z,2.80
2022-10-03T12:25:54.448Z,3.27
2022-10-03T12:28:25.731Z,3.20
2022-10-03T12:31:00.204Z,3.07
2022-10-03T12:33:43.155Z,3.70
2022-10-03T12:36:16.183Z,3.30
2022-10-03T12:39:10.373Z,2.90
2022-10-03T12:41:57.179Z,3.57
2022-10-03T12:44:37.809Z,3.30
2022-10-03T12:47:37.626Z,2.80
2022-10-03T12:50:27.798Z,3.40
2022-10-03T12:53:21.176Z,3.10
2022-10-03T12:56:04.751Z,3.20
2022-10-03T12:58:44.350Z,3.43
2022-10-03T13:01:24.423Z,3.00
2022-10-03T13:04:05.986Z,2.87
2022-10-03T13:07:02.920Z,2.97
2022-10-03T13:09:51.249Z,2.87
2022-10-03T13:12:29.359Z,2.70
2022-10-03T13:15:45.468Z,2.70
2022-10-03T13:18:29.183Z,2.50
2022-10-03T13:21:21.379Z,2.67
2022-10-03T13:23:59.919Z,2.70
2022-10-03T13:26:40.092Z,3.17
2022-10-03T13:29:27.059Z,2.87
2022-10-03T13:32:13.523Z,2.70
2022-10-03T13:35:23.366Z,2.87
2022-10-03T13:38:10.856Z,3.23
2022-10-03T13:40:47.198Z,3.47
2022-10-03T13:43:21.692Z,3.00
2022-10-03T13:45:57.136Z,4.00
2022-10-03T13:48:31.805Z,3.50
2022-10-03T13:51:05.470Z,2.70
2022-10-03T13:53:55.459Z,3.40
2022-10-03T13:56:40.278Z,3.10
2022-10-03T13:59:28.824Z,2.50
2022-10-03T14:02:08.927Z,2.67
2022-10-03T14:05:00.890Z,2.87
2022-10-03T14:07:45.199Z,2.70
2022-10-03T14:10:33.592Z,2.40
2022-10-03T14:13:17.434Z,3.58
2022-10-03T14:15:51.313Z,2.88
2022-10-03T14:18:33.281Z,2.40
2022-10-03T14:21:28.190Z,2.70
2022-10-03T14:24:14.166Z,2.42
2022-10-03T14:26:50.211Z,2.60
2022-10-03T14:29:27.823Z,2.53
2022-10-03T14:32:02.290Z,2.30
2022-10-03T14:34:47.636Z,2.25
2022-10-03T14:37:27.097Z,2.38
2022-10-03T14:40:13.620Z,2.20
2022-10-03T14:43:03.060Z,2.15
2022-10-03T14:45:35.460Z,1.98
2022-10-03T14:48:12.111Z,1.98
2022-10-03T14:50:44.039Z,2.50
2022-10-03T14:53:20.385Z,1.92
2022-10-03T14:56:00.626Z,2.30
2022-10-03T14:58:32.673Z,2.08
2022-10-03T15:01:10.738Z,2.45
2022-10-03T15:03:40.622Z,2.45
2022-10-03T15:06:50.263Z,2.70
2022-10-03T15:09:21.648Z,2.58
2022-10-03T15:11:54.189Z,2.20
2022-10-03T15:14:24.630Z,2.25
2022-10-03T15:16:55.983Z,1.98
2022-10-03T15:19:31.896Z,2.50
2022-10-03T15:22:07.629Z,2.50
2022-10-03T15:24:39.111Z,2.05
2022-10-03T15:27:13.833Z,2.25
2022-10-03T15:29:44.954Z,1.92
2022-10-03T15:34:51.374Z,2.00
2022-10-03T15:37:30.250Z,2.10
2022-10-03T15:40:03.257Z,2.42
2022-10-03T15:42:32.740Z,2.47
2022-10-03T15:45:06.433Z,2.20
2022-10-03T15:47:36.754Z,2.53
2022-10-03T15:50:13.204Z,1.98
2022-10-03T15:52:46.234Z,2.35
2022-10-03T15:55:19.731Z,2.03
2022-10-03T15:57:50.552Z,2.13
2022-10-03T16:00:24.526Z,2.05
2022-10-03T16:03:00.206Z,2.22
2022-10-03T16:05:28.672Z,1.85
2022-10-03T16:08:05.191Z,2.03
2022-10-03T16:10:38.799Z,2.30
2022-10-03T16:13:20.164Z,2.30
2022-10-03T16:16:08.857Z,1.98
2022-10-03T16:18:51.957Z,1.95
2022-10-03T16:21:40.429Z,1.70
2022-10-03T16:24:22.101Z,1.97
2022-10-03T16:26:55.857Z,1.70
2022-10-03T16:29:32.354Z,2.60
2022-10-03T16:32:04.940Z,2.35
2022-10-03T16:34:35.300Z,2.17
2022-10-03T16:37:06.279Z,2.10
2022-10-03T16:39:38.567Z,2.30
2022-10-03T16:42:14.296Z,2.30
2022-10-03T16:44:51.447Z,2.03
2022-10-03T16:47:29.481Z,2.43
2022-10-03T16:50:16.810Z,2.07
2022-10-03T16:52:47.975Z,2.57
2022-10-03T16:55:22.519Z,2.23
2022-10-03T16:57:53.955Z,2.60
2022-10-03T17:00:24.565Z,2.63
2022-10-03T17:02:53.692Z,2.80
2022-10-03T17:05:22.281Z,3.10
2022-10-03T17:07:54.787Z,2.80
2022-10-03T17:10:35.247Z,3.83
2022-10-03T17:13:10.787Z,3.50
2022-10-03T17:15:49.267Z,3.37
2022-10-03T17:18:26.133Z,3.13
2022-10-03T17:20:57.700Z,3.03
2022-10-03T17:23:31.160Z,2.57
2022-10-03T17:26:05.991Z,3.40
2022-10-03T17:28:41.449Z,2.80
2022-10-03T17:31:29.916Z,2.93
2022-10-03T17:34:06.270Z,2.97
2022-10-03T17:37:04.975Z,2.80
2022-10-03T17:39:40.993Z,2.97
2022-10-03T17:42:24.498Z,3.10
2022-10-03T17:45:00.319Z,3.07
2022-10-03T17:47:41.117Z,3.57
2022-10-03T17:50:15.640Z,3.70
2022-10-03T17:52:47.179Z,4.13
2022-10-03T17:55:20.280Z,3.67
2022-10-03T17:57:52.638Z,3.87
2022-10-03T18:00:22.282Z,3.70
2022-10-03T18:02:59.159Z,3.07
2022-10-03T18:05:30.448Z,3.63
2022-10-03T18:08:05.816Z,3.53
2022-10-03T18:10:38.794Z,3.63
2022-10-03T18:13:18.052Z,3.27
2022-10-03T18:16:18.342Z,3.37
2022-10-03T18:19:10.785Z,3.37
2022-10-03T18:22:03.313Z,3.13
2022-10-03T18:24:52.747Z,3.13
2022-10-03T18:27:44.514Z,3.63
2022-10-03T18:30:20.172Z,3.50
2022-10-03T18:32:50.254Z,3.23
2022-10-03T18:35:22.985Z,3.47
2022-10-03T18:37:59.555Z,3.70
2022-10-03T18:40:30.510Z,3.33
2022-10-03T18:43:00.433Z,3.87
2022-10-03T18:45:32.395Z,3.57
2022-10-03T18:48:08.285Z,3.00
2022-10-03T18:50:51.254Z,2.93
2022-10-03T18:53:28.135Z,2.93
2022-10-03T18:56:00.511Z,2.93
2022-10-03T18:58:32.066Z,2.90
2022-10-03T19:01:06.244Z,3.90
2022-10-03T19:03:40.286Z,3.00
2022-10-03T19:06:19.622Z,3.17
2022-10-03T19:08:53.275Z,3.17
2022-10-03T19:11:26.078Z,2.93
2022-10-03T19:14:02.277Z,4.07
2022-10-03T19:16:45.239Z,3.17
2022-10-03T19:19:26.270Z,3.20
2022-10-03T19:21:54.610Z,3.40
2022-10-03T19:24:46.506Z,3.33
2022-10-03T19:27:18.826Z,3.10
2022-10-03T19:29:50.407Z,2.60
2022-10-03T19:32:26.756Z,3.27
2022-10-03T19:34:58.197Z,3.10
2022-10-03T19:37:44.539Z,3.30
2022-10-03T19:40:16.449Z,3.23
2022-10-03T19:42:48.378Z,3.10
2022-10-03T19:45:19.710Z,3.33
2022-10-03T19:47:54.339Z,3.53
2022-10-03T19:50:28.232Z,3.33
2022-10-03T19:52:56.896Z,3.60
2022-10-03T19:55:30.972Z,3.67
2022-10-03T19:58:02.054Z,3.63
2022-10-03T20:00:32.944Z,3.53
2022-10-03T20:03:18.159Z,3.90
2022-10-03T20:05:55.801Z,4.43
2022-10-03T20:08:27.383Z,4.47
2022-10-03T20:11:15.426Z,5.77
2022-10-03T20:13:46.216Z,4.77
2022-10-03T20:16:18.322Z,4.87
2022-10-03T20:18:50.191Z,5.70
2022-10-03T20:21:21.800Z,5.87
2022-10-03T20:23:50.717Z,5.33
2022-10-03T20:26:30.446Z,6.03
2022-10-03T20:29:28.567Z,6.10
2022-10-03T20:32:15.416Z,5.90
2022-10-03T20:34:50.822Z,6.43
2022-10-03T20:37:36.666Z,5.70
2022-10-03T20:40:17.467Z,6.13
2022-10-03T20:42:49.308Z,6.13
2022-10-03T20:45:23.546Z,6.63
2022-10-03T20:48:00.327Z,6.43
2022-10-03T20:50:33.547Z,5.33
2022-10-03T20:53:03.235Z,6.43
2022-10-03T20:55:34.188Z,6.47
2022-10-03T20:58:14.339Z,5.70
2022-10-03T21:00:47.474Z,6.40
2022-10-03T21:03:27.454Z,6.63
2022-10-03T21:05:59.203Z,6.17
2022-10-03T21:08:30.107Z,6.10
2022-10-03T21:11:02.507Z,6.67
2022-10-03T21:13:34.784Z,6.53
2022-10-03T21:16:05.933Z,6.33
2022-10-03T21:18:38.314Z,6.00
2022-10-03T21:21:13.835Z,6.07
2022-10-03T21:23:48.339Z,6.67
2022-10-03T21:26:22.280Z,5.93
2022-10-03T21:28:49.988Z,6.13
2022-10-03T21:31:31.965Z,6.90
2022-10-03T21:34:17.334Z,7.17
2022-10-03T21:36:52.872Z,6.27
2022-10-03T21:39:33.878Z,6.70
2022-10-03T21:42:13.670Z,6.70
2022-10-03T21:44:59.527Z,7.03
2022-10-03T21:47:45.088Z,6.80
2022-10-03T21:50:20.588Z,7.17
2022-10-03T21:53:11.867Z,7.37
2022-10-03T21:56:00.086Z,7.33
2022-10-03T21:58:43.664Z,8.47
2022-10-03T22:01:26.857Z,8.47
2022-10-03T22:04:03.324Z,7.33
2022-10-03T22:06:38.058Z,7.47
2022-10-03T22:09:13.930Z,8.00
2022-10-03T22:11:49.953Z,7.20
2022-10-03T22:14:29.585Z,7.63
2022-10-03T22:17:06.927Z,6.97
2022-10-03T22:19:39.963Z,6.90
2022-10-03T22:22:29.761Z,6.53
2022-10-03T22:25:16.428Z,7.00
2022-10-03T22:27:52.503Z,6.20
2022-10-03T22:30:22.227Z,7.30
2022-10-03T22:33:08.184Z,7.13
2022-10-03T22:35:50.312Z,5.67
2022-10-03T22:38:21.424Z,6.27
2022-10-03T22:40:51.639Z,5.43
2022-10-03T22:43:20.684Z,5.47
2022-10-03T22:48:24.364Z,5.90
2022-10-03T22:50:55.287Z,5.30
2022-10-03T22:56:45.150Z,5.70
2022-10-03T22:59:16.271Z,4.73
2022-10-03T23:01:46.928Z,4.90
2022-10-03T23:04:23.953Z,5.20
2022-10-03T23:07:12.005Z,5.23
2022-10-03T23:09:50.100Z,4.90
2022-10-03T23:23:01.750Z,5.53
2022-10-03T23:25:33.831Z,5.20
2022-10-03T23:28:17.455Z,4.93
2022-10-03T23:30:50.496Z,4.90
2022-10-03T23:33:19.184Z,5.20
2022-10-03T23:35:47.367Z,4.70
2022-10-03T23:43:29.148Z,4.77
2022-10-03T23:45:59.537Z,4.67
2022-10-03T23:48:28.575Z,4.70
2022-10-03T23:50:58.639Z,4.53
2022-10-03T23:53:30.338Z,5.83
2022-10-03T23:55:58.874Z,4.50
2022-10-03T23:58:30.335Z,4.40
